createdAt,value
2022-09-15T00:00:33.783Z,20.99
2022-09-15T00:03:01.080Z,20.98
2022-09-15T00:05:28.320Z,20.98
2022-09-15T00:07:55.654Z,21.01
2022-09-15T00:10:22.861Z,20.76
2022-09-15T00:12:50.177Z,20.70
2022-09-15T00:15:17.693Z,20.78
2022-09-15T00:17:49.330Z,20.88
2022-09-15T00:20:17.827Z,20.99
2022-09-15T00:22:45.142Z,20.91
2022-09-15T00:25:12.556Z,20.80
2022-09-15T00:27:39.733Z,20.77
2022-09-15T00:30:07.825Z,20.74
2022-09-15T00:32:35.579Z,20.80
2022-09-15T00:35:02.940Z,20.70
2022-09-15T00:37:30.225Z,20.71
2022-09-15T00:39:57.624Z,20.73
2022-09-15T00:42:24.852Z,20.60
2022-09-15T00:45:02.775Z,20.34
2022-09-15T00:47:35.982Z,20.41
2022-09-15T00:50:11.804Z,20.37
2022-09-15T00:52:48.139Z,20.32
2022-09-15T00:55:26.616Z,20.46
2022-09-15T00:58:04.142Z,20.43
2022-09-15T01:00:31.394Z,20.41
2022-09-15T01:02:59.203Z,20.41
2022-09-15T01:05:30.238Z,20.49
2022-09-15T01:08:02.143Z,20.39
2022-09-15T01:10:30.437Z,20.23
2022-09-15T01:13:00.294Z,20.25
2022-09-15T01:15:46.224Z,20.33
2022-09-15T01:18:26.151Z,20.33
2022-09-15T01:20:59.654Z,20.10
2022-09-15T01:23:51.680Z,20.05
2022-09-15T01:26:55.644Z,20.05
2022-09-15T01:29:26.898Z,20.19
2022-09-15T01:32:39.019Z,20.18
2022-09-15T01:35:06.319Z,20.08
2022-09-15T01:37:38.400Z,19.93
2022-09-15T01:40:06.720Z,19.81
2022-09-15T01:42:34.051Z,19.75
2022-09-15T01:45:04.182Z,19.69
2022-09-15T01:47:31.383Z,19.74
2022-09-15T01:50:09.615Z,19.69
2022-09-15T01:52:36.896Z,19.72
2022-09-15T01:55:07.770Z,19.79
2022-09-15T01:57:35.087Z,19.82
2022-09-15T02:00:02.562Z,19.86
2022-09-15T02:02:48.218Z,19.81
2022-09-15T02:05:25.827Z,19.91
2022-09-15T02:08:05.763Z,19.89
2022-09-15T02:10:59.319Z,19.96
2022-09-15T02:13:42.876Z,19.93
2022-09-15T02:16:16.033Z,19.92
2022-09-15T02:18:45.368Z,19.77
2022-09-15T02:21:21.482Z,19.69
2022-09-15T02:23:51.182Z,19.72
2022-09-15T02:26:20.774Z,19.64
2022-09-15T02:28:47.937Z,19.79
2022-09-15T02:31:15.950Z,19.93
2022-09-15T02:34:03.430Z,19.82
2022-09-15T02:36:30.633Z,19.88
2022-09-15T02:39:03.868Z,19.95
2022-09-15T02:41:31.125Z,20.00
2022-09-15T02:43:58.271Z,20.04
2022-09-15T02:46:25.473Z,20.02
2022-09-15T02:48:53.397Z,19.98
2022-09-15T02:51:20.567Z,20.04
2022-09-15T02:53:47.771Z,19.99
2022-09-15T02:56:16.615Z,20.04
2022-09-15T02:58:43.898Z,20.12
2022-09-15T03:01:15.673Z,20.08
2022-09-15T03:03:43.627Z,20.00
2022-09-15T03:06:17.708Z,20.12
2022-09-15T03:08:48.618Z,20.02
2022-09-15T03:11:16.077Z,20.05
2022-09-15T03:13:43.343Z,20.09
2022-09-15T03:16:11.094Z,20.00
2022-09-15T03:18:38.490Z,20.09
2022-09-15T03:21:06.908Z,20.09
2022-09-15T03:23:34.129Z,20.20
2022-09-15T03:26:01.732Z,20.20
2022-09-15T03:28:28.995Z,20.20
2022-09-15T03:30:56.408Z,20.19
2022-09-15T03:33:24.443Z,20.12
2022-09-15T03:35:51.810Z,20.16
2022-09-15T03:38:19.058Z,20.18
2022-09-15T03:40:59.367Z,20.12
2022-09-15T03:43:27.209Z,20.20
2022-09-15T03:45:55.104Z,20.29
2022-09-15T03:48:23.591Z,20.28
2022-09-15T03:50:51.148Z,20.34
2022-09-15T03:53:18.556Z,20.28
2022-09-15T03:55:46.051Z,20.25
2022-09-15T03:58:13.426Z,20.23
2022-09-15T04:00:41.392Z,20.28
2022-09-15T04:03:08.755Z,20.19
2022-09-15T04:05:36.193Z,20.10
2022-09-15T04:08:03.459Z,20.05
2022-09-15T04:10:30.844Z,20.13
2022-09-15T04:12:58.073Z,20.12
2022-09-15T04:15:25.324Z,20.12
2022-09-15T04:17:52.547Z,20.16
2022-09-15T04:20:20.122Z,19.98
2022-09-15T04:22:47.403Z,19.99
2022-09-15T04:25:14.907Z,20.08
2022-09-15T04:27:42.194Z,19.98
2022-09-15T04:30:09.794Z,19.95
2022-09-15T04:32:37.204Z,19.92
2022-09-15T04:35:04.905Z,19.98
2022-09-15T04:37:32.310Z,19.89
2022-09-15T04:39:59.768Z,19.92
2022-09-15T04:42:27.691Z,19.77
2022-09-15T04:44:54.887Z,19.83
2022-09-15T04:47:22.195Z,19.68
2022-09-15T04:49:49.338Z,19.67
2022-09-15T04:52:16.740Z,19.68
2022-09-15T04:54:44.024Z,19.72
2022-09-15T04:57:11.440Z,19.78
2022-09-15T04:59:39.165Z,19.83
2022-09-15T05:02:06.556Z,19.89
2022-09-15T05:04:35.135Z,19.83
2022-09-15T05:07:03.025Z,19.85
2022-09-15T05:09:31.310Z,19.93
2022-09-15T05:11:58.893Z,19.98
2022-09-15T05:14:26.655Z,20.04
2022-09-15T05:16:57.678Z,19.98
2022-09-15T05:19:35.624Z,19.99
2022-09-15T05:22:03.372Z,20.00
2022-09-15T05:24:59.670Z,20.00
2022-09-15T05:27:29.371Z,19.99
2022-09-15T05:30:09.952Z,19.96
2022-09-15T05:32:44.461Z,19.95
2022-09-15T05:35:13.033Z,20.05
2022-09-15T05:37:40.686Z,19.98
2022-09-15T05:40:08.928Z,20.10
2022-09-15T05:42:37.051Z,20.04
2022-09-15T05:45:04.512Z,19.83
2022-09-15T05:47:31.835Z,19.95
2022-09-15T05:49:59.665Z,19.95
2022-09-15T05:52:27.270Z,20.05
2022-09-15T05:54:58.823Z,20.10
2022-09-15T05:57:27.220Z,20.16
2022-09-15T05:59:55.267Z,20.18
2022-09-15T06:02:22.880Z,20.25
2022-09-15T06:04:50.145Z,20.34
2022-09-15T06:07:32.698Z,20.34
2022-09-15T06:10:01.424Z,20.41
2022-09-15T06:12:28.671Z,20.30
2022-09-15T06:15:12.872Z,20.32
2022-09-15T06:17:43.221Z,20.32
2022-09-15T06:20:35.053Z,20.39
2022-09-15T06:23:03.378Z,20.34
2022-09-15T06:25:30.754Z,20.41
2022-09-15T06:27:58.175Z,20.49
2022-09-15T06:30:26.173Z,20.47
2022-09-15T06:32:57.174Z,20.57
2022-09-15T06:35:25.221Z,20.61
2022-09-15T06:37:52.651Z,20.73
2022-09-15T06:40:20.525Z,20.87
2022-09-15T06:42:48.362Z,20.88
2022-09-15T06:45:15.842Z,21.15
2022-09-15T06:47:43.479Z,21.28
2022-09-15T06:50:11.299Z,21.32
2022-09-15T06:52:38.888Z,21.29
2022-09-15T06:55:06.639Z,21.76
2022-09-15T06:57:34.356Z,21.42
2022-09-15T07:00:02.834Z,21.19
2022-09-15T07:02:31.610Z,20.87
2022-09-15T07:05:00.680Z,20.85
2022-09-15T07:07:30.163Z,20.90
2022-09-15T07:10:00.567Z,20.87
2022-09-15T07:12:32.656Z,20.99
2022-09-15T07:15:00.284Z,21.08
2022-09-15T07:17:30.904Z,21.34
2022-09-15T07:19:59.077Z,21.26
2022-09-15T07:22:27.203Z,21.25
2022-09-15T07:24:55.488Z,21.26
2022-09-15T07:27:43.991Z,21.25
2022-09-15T07:30:12.291Z,21.31
2022-09-15T07:32:40.957Z,21.43
2022-09-15T07:35:08.836Z,21.42
2022-09-15T07:37:36.260Z,21.53
2022-09-15T07:40:04.278Z,21.63
2022-09-15T07:42:35.391Z,21.84
2022-09-15T07:45:03.229Z,21.92
2022-09-15T07:47:31.923Z,22.04
2022-09-15T07:50:02.608Z,21.90
2022-09-15T07:52:31.127Z,21.79
2022-09-15T07:54:58.513Z,21.96
2022-09-15T07:57:38.901Z,22.18
2022-09-15T08:00:12.397Z,22.22
2022-09-15T08:05:26.642Z,22.66
2022-09-15T08:07:57.884Z,22.72
2022-09-15T08:10:27.603Z,22.40
2022-09-15T08:12:59.337Z,22.07
2022-09-15T08:15:27.562Z,22.10
2022-09-15T08:17:57.799Z,22.20
2022-09-15T08:20:32.987Z,22.27
2022-09-15T08:23:01.244Z,22.35
2022-09-15T08:25:30.198Z,22.49
2022-09-15T08:27:59.710Z,23.20
2022-09-15T08:30:28.210Z,23.04
2022-09-15T08:32:55.646Z,23.06
2022-09-15T08:35:23.628Z,23.13
2022-09-15T08:37:54.379Z,23.31
2022-09-15T08:40:26.219Z,23.60
2022-09-15T08:42:55.545Z,23.67
2022-09-15T08:45:25.095Z,24.01
2022-09-15T08:47:56.294Z,24.22
2022-09-15T08:50:31.335Z,24.16
2022-09-15T08:53:15.609Z,23.97
2022-09-15T08:55:56.033Z,24.29
2022-09-15T08:58:29.379Z,24.32
2022-09-15T09:01:17.396Z,24.77
2022-09-15T09:04:03.691Z,25.04
2022-09-15T09:06:45.484Z,25.32
2022-09-15T09:09:18.844Z,25.59
2022-09-15T09:12:17.555Z,25.22
2022-09-15T09:14:58.938Z,25.19
2022-09-15T09:17:58.247Z,24.91
2022-09-15T09:20:42.263Z,24.74
2022-09-15T09:23:13.386Z,24.77
2022-09-15T09:25:53.722Z,25.01
2022-09-15T09:28:30.058Z,25.63
2022-09-15T09:31:01.613Z,25.67
2022-09-15T09:33:34.934Z,25.80
2022-09-15T09:36:02.696Z,25.75
2022-09-15T09:38:38.500Z,25.82
2022-09-15T09:41:36.510Z,25.76
2022-09-15T09:44:06.064Z,25.61
2022-09-15T09:46:34.166Z,25.66
2022-09-15T09:49:21.218Z,25.50
2022-09-15T09:51:56.051Z,25.41
2022-09-15T09:54:27.509Z,25.25
2022-09-15T09:56:58.116Z,25.14
2022-09-15T09:59:39.954Z,25.11
2022-09-15T10:02:21.546Z,24.86
2022-09-15T10:05:21.061Z,24.81
2022-09-15T10:08:04.514Z,24.90
2022-09-15T10:10:50.121Z,24.94
2022-09-15T10:13:58.794Z,25.11
2022-09-15T10:16:49.852Z,25.04
2022-09-15T10:19:58.894Z,24.98
2022-09-15T10:22:47.143Z,24.94
2022-09-15T10:25:49.290Z,24.97
2022-09-15T10:28:27.248Z,24.94
2022-09-15T10:31:40.832Z,24.91
2022-09-15T10:34:29.855Z,25.15
2022-09-15T10:37:56.360Z,24.88
2022-09-15T10:40:44.909Z,24.84
2022-09-15T10:43:42.548Z,24.87
2022-09-15T10:46:21.305Z,24.78
2022-09-15T10:49:12.761Z,24.68
2022-09-15T10:51:59.279Z,24.74
2022-09-15T10:54:40.874Z,24.76
2022-09-15T10:57:40.139Z,24.87
2022-09-15T11:00:16.464Z,25.11
2022-09-15T11:03:17.923Z,25.39
2022-09-15T11:06:35.847Z,25.53
2022-09-15T11:09:19.426Z,25.61
2022-09-15T11:12:00.235Z,25.50
2022-09-15T11:14:47.362Z,25.56
2022-09-15T11:17:36.163Z,25.38
2022-09-15T11:20:12.883Z,25.28
2022-09-15T11:22:49.730Z,25.15
2022-09-15T11:25:25.211Z,25.24
2022-09-15T11:27:57.564Z,25.39
2022-09-15T11:30:26.954Z,25.31
2022-09-15T11:33:19.377Z,25.08
2022-09-15T11:36:03.640Z,25.19
2022-09-15T11:38:48.310Z,25.24
2022-09-15T11:41:38.747Z,25.08
2022-09-15T11:44:34.134Z,25.08
2022-09-15T11:47:05.053Z,24.99
2022-09-15T11:49:49.115Z,24.92
2022-09-15T11:52:35.790Z,24.68
2022-09-15T11:55:22.530Z,24.36
2022-09-15T11:58:21.057Z,24.25
2022-09-15T12:01:07.401Z,24.22
2022-09-15T12:03:39.481Z,24.09
2022-09-15T12:06:10.163Z,23.95
2022-09-15T12:08:41.262Z,23.88
2022-09-15T12:11:12.352Z,23.65
2022-09-15T12:13:40.860Z,23.39
2022-09-15T12:16:08.372Z,21.53
2022-09-15T12:18:44.949Z,20.41
2022-09-15T12:21:22.971Z,19.62
2022-09-15T12:24:08.997Z,18.93
2022-09-15T15:07:05.222Z,20.23
2022-09-15T15:09:38.331Z,20.40
2022-09-15T15:12:19.464Z,20.30
2022-09-15T15:14:47.558Z,20.36
2022-09-15T15:17:44.081Z,20.28
2022-09-15T15:20:14.640Z,20.30
2022-09-15T15:22:44.802Z,20.36
2022-09-15T15:25:31.385Z,20.32
2022-09-15T15:28:00.761Z,20.20
2022-09-15T15:30:32.769Z,20.26
2022-09-15T15:33:05.753Z,20.18
2022-09-15T15:35:41.179Z,20.28
2022-09-15T15:38:11.998Z,20.30
2022-09-15T15:40:40.965Z,20.34
2022-09-15T15:43:26.483Z,20.22
2022-09-15T15:46:02.009Z,20.23
2022-09-15T15:48:38.053Z,20.13
2022-09-15T15:51:16.460Z,20.16
2022-09-15T15:53:44.986Z,20.13
2022-09-15T15:56:20.691Z,20.10
2022-09-15T15:58:57.211Z,20.08
2022-09-15T16:01:31.547Z,20.06
2022-09-15T16:04:02.200Z,20.06
2022-09-15T16:06:40.992Z,20.08
2022-09-15T16:09:12.486Z,20.04
2022-09-15T16:11:53.303Z,20.05
2022-09-15T16:14:27.968Z,20.00
2022-09-15T16:17:11.696Z,20.04
2022-09-15T16:19:54.195Z,20.05
2022-09-15T16:22:27.959Z,19.96
2022-09-15T16:25:01.789Z,20.02
2022-09-15T16:27:35.357Z,20.04
2022-09-15T16:30:14.164Z,20.02
2022-09-15T16:32:44.722Z,20.06
2022-09-15T16:35:51.487Z,20.13
2022-09-15T16:38:32.196Z,19.96
2022-09-15T16:41:16.597Z,19.93
2022-09-15T16:43:56.836Z,19.83
2022-09-15T16:46:32.685Z,19.81
2022-09-15T16:49:12.640Z,19.68
2022-09-15T16:51:49.449Z,19.71
2022-09-15T16:54:25.194Z,19.60
2022-09-15T16:57:01.003Z,19.65
2022-09-15T16:59:40.030Z,19.60
2022-09-15T17:02:19.612Z,19.61
2022-09-15T17:04:55.533Z,19.48
2022-09-15T17:07:32.539Z,19.51
2022-09-15T17:10:18.804Z,19.53
2022-09-15T17:12:53.497Z,19.47
2022-09-15T17:15:33.738Z,19.47
2022-09-15T17:18:07.523Z,19.50
2022-09-15T17:20:48.690Z,19.43
2022-09-15T17:23:26.510Z,19.50
2022-09-15T17:26:24.626Z,19.58
2022-09-15T17:29:06.220Z,19.61
2022-09-15T17:31:38.468Z,19.62
2022-09-15T17:34:18.259Z,19.50
2022-09-15T17:36:57.555Z,19.46
2022-09-15T17:39:34.354Z,19.53
2022-09-15T17:42:13.210Z,19.50
2022-09-15T17:45:01.699Z,19.44
2022-09-15T17:47:49.742Z,19.44
2022-09-15T17:50:26.093Z,19.50
2022-09-15T17:53:02.213Z,19.44
2022-09-15T17:55:34.667Z,19.55
2022-09-15T17:58:15.354Z,19.50
2022-09-15T18:04:14.283Z,19.47
2022-09-15T18:06:58.037Z,19.46
2022-09-15T18:09:39.064Z,19.43
2022-09-15T18:12:22.835Z,19.46
2022-09-15T18:15:15.694Z,19.47
2022-09-15T18:17:43.866Z,19.58
2022-09-15T18:23:46.371Z,19.74
2022-09-15T18:26:16.889Z,19.77
2022-09-15T18:28:50.182Z,19.82
2022-09-15T18:31:32.314Z,19.89
2022-09-15T18:34:04.257Z,19.98
2022-09-15T18:36:35.401Z,19.74
2022-09-15T18:39:12.229Z,19.62
2022-09-15T18:41:44.477Z,19.64
2022-09-15T18:44:20.086Z,19.75
2022-09-15T18:46:55.337Z,19.81
2022-09-15T18:49:35.653Z,19.65
2022-09-15T18:52:07.258Z,19.57
2022-09-15T18:54:43.415Z,19.48
2022-09-15T18:57:29.786Z,19.44
2022-09-15T19:00:02.189Z,19.55
2022-09-15T19:02:32.899Z,19.58
2022-09-15T19:05:13.593Z,19.38
2022-09-15T19:07:46.243Z,19.40
2022-09-15T19:10:20.569Z,19.47
2022-09-15T19:12:58.120Z,19.21
2022-09-15T19:15:30.248Z,19.30
2022-09-15T19:18:02.230Z,19.38
2022-09-15T19:20:45.362Z,19.46
2022-09-15T19:23:16.159Z,19.46
2022-09-15T19:25:49.259Z,19.44
2022-09-15T19:28:21.613Z,19.40
2022-09-15T19:30:58.300Z,19.55
2022-09-15T19:33:34.646Z,19.44
2022-09-15T19:36:29.071Z,19.33
2022-09-15T19:39:15.033Z,19.31
2022-09-15T19:41:43.004Z,19.16
2022-09-15T19:44:16.320Z,19.17
2022-09-15T19:46:50.515Z,19.16
2022-09-15T19:49:22.122Z,19.17
2022-09-15T19:52:00.900Z,19.23
2022-09-15T19:54:32.327Z,19.19
2022-09-15T19:57:05.068Z,19.06
2022-09-15T19:59:36.784Z,19.14
2022-09-15T20:02:12.279Z,19.02
2022-09-15T20:04:45.610Z,18.88
2022-09-15T20:07:21.542Z,18.75
2022-09-15T20:09:55.368Z,18.75
2022-09-15T20:12:31.345Z,18.75
2022-09-15T20:15:07.192Z,18.76
2022-09-15T20:17:43.658Z,18.88
2022-09-15T20:20:17.223Z,18.98
2022-09-15T20:22:48.381Z,18.90
2022-09-15T20:25:21.675Z,18.85
2022-09-15T20:27:56.005Z,19.09
2022-09-15T21:04:03.506Z,18.96
2022-09-15T21:06:38.117Z,18.89
2022-09-15T21:09:10.938Z,18.81
2022-09-15T21:11:43.674Z,18.79
2022-09-15T21:14:33.256Z,18.71
2022-09-15T21:17:11.572Z,18.86
2022-09-15T21:19:46.517Z,18.92
2022-09-15T21:22:16.937Z,18.92
2022-09-15T21:24:48.936Z,19.02
2022-09-15T21:27:30.196Z,19.04
2022-09-15T21:30:08.769Z,18.93
2022-09-15T21:32:43.056Z,18.83
2022-09-15T21:35:22.754Z,18.58
2022-09-15T21:38:06.687Z,18.56
2022-09-15T21:40:50.119Z,18.79
2022-09-15T21:43:21.934Z,18.88
2022-09-15T21:45:58.715Z,18.95
2022-09-15T21:48:30.123Z,18.82
2022-09-15T21:51:03.331Z,18.73
2022-09-15T21:53:36.639Z,18.58
2022-09-15T21:56:15.278Z,18.69
2022-09-15T21:58:58.000Z,18.73
2022-09-15T22:01:31.642Z,18.68
2022-09-15T22:04:07.669Z,18.69
2022-09-15T22:06:44.052Z,18.65
2022-09-15T22:09:26.004Z,18.53
2022-09-15T22:12:01.542Z,18.58
2022-09-15T22:14:29.437Z,18.30
2022-09-15T22:17:07.001Z,18.31
2022-09-15T22:19:45.872Z,18.51
2022-09-15T22:22:25.885Z,18.40
2022-09-15T22:25:21.160Z,18.10
2022-09-15T22:28:09.541Z,17.98
2022-09-15T22:30:45.425Z,17.83
2022-09-15T22:33:21.062Z,17.83
2022-09-15T22:35:56.008Z,17.90
2022-09-15T22:38:32.154Z,17.86
2022-09-15T22:41:18.265Z,18.03
2022-09-15T22:43:52.073Z,17.98
2022-09-15T22:46:25.034Z,17.94
2022-09-15T22:49:00.249Z,17.96
2022-09-15T22:51:36.843Z,17.84
2022-09-15T22:54:10.180Z,17.89
2022-09-15T22:56:41.435Z,18.13
2022-09-15T22:59:17.323Z,17.90
2022-09-15T23:02:03.223Z,17.93
2022-09-15T23:04:37.875Z,18.03
2022-09-15T23:07:11.615Z,18.15
2022-09-15T23:09:55.860Z,17.98
2022-09-15T23:12:32.658Z,18.07
2022-09-15T23:15:05.316Z,18.20
2022-09-15T23:17:39.258Z,18.28
2022-09-15T23:20:14.663Z,18.35
2022-09-15T23:22:47.910Z,18.31
2022-09-15T23:25:20.963Z,18.17
2022-09-15T23:27:55.723Z,18.15
2022-09-15T23:30:29.079Z,18.05
2022-09-15T23:33:09.800Z,18.01
2022-09-15T23:35:47.656Z,18.05
2022-09-15T23:38:23.353Z,18.10
2022-09-15T23:41:04.420Z,18.21
2022-09-15T23:43:40.612Z,18.21
2022-09-15T23:46:17.721Z,18.30
2022-09-15T23:48:49.895Z,18.32
2022-09-15T23:51:24.361Z,18.38
2022-09-15T23:53:59.106Z,18.30
2022-09-15T23:56:31.702Z,18.27
2022-09-15T23:59:03.580Z,18.38
